Time;durP1;ratioP1;P1;durP2;ratioP2;P2;SDS_P1;SDS_P2;PMS_P1;PMS_P2;Temp;Humidity;BMP_temperature;BMP_pressure;BME280_temperature;BME280_humidity;BME280_pressure;Samples;Min_cycle;Max_cycle;Signal;HPM_P1;HPM_P2
2022/12/08 00:01:17;;;;;;;6.28;0.75;;;3.70;99.90;;;;;;5078427;28;20039;-60
2022/12/08 00:03:43;;;;;;;5.57;1.05;;;3.70;99.90;;;;;;5077921;28;20032;-59
2022/12/08 00:09:22;;;;;;;4.07;1.20;;;3.70;99.90;;;;;;5082605;28;20036;-60
2022/12/08 00:12:05;;;;;;;8.30;1.30;;;3.70;99.90;;;;;;5079080;28;20051;-60
2022/12/08 00:14:36;;;;;;;6.88;1.15;;;3.70;99.90;;;;;;5079252;28;20503;-60
2022/12/08 00:17:02;;;;;;;8.00;2.13;;;3.70;99.90;;;;;;5080421;28;20423;-60
2022/12/08 00:19:28;;;;;;;4.68;1.27;;;3.70;99.90;;;;;;5058192;28;20096;-60
2022/12/08 00:21:55;;;;;;;5.25;0.82;;;3.60;99.90;;;;;;5064907;28;20529;-60
2022/12/08 00:24:22;;;;;;;4.50;0.90;;;3.60;99.90;;;;;;5095839;28;20110;-60
2022/12/08 00:26:48;;;;;;;3.05;0.52;;;3.60;99.90;;;;;;5080746;28;20041;-60
2022/12/08 00:29:14;;;;;;;3.25;0.50;;;3.60;99.90;;;;;;5073036;28;20029;-60
2022/12/08 00:31:40;;;;;;;4.75;0.47;;;3.60;99.90;;;;;;5080505;28;20047;-60
2022/12/08 00:34:09;;;;;;;1.67;0.50;;;3.60;99.90;;;;;;5076168;28;20044;-60
2022/12/08 00:36:35;;;;;;;7.25;0.80;;;3.60;99.90;;;;;;5079121;28;20403;-60
2022/12/08 00:39:00;;;;;;;2.97;0.52;;;3.60;99.90;;;;;;5059206;28;20048;-60
2022/12/08 00:44:14;;;;;;;2.05;0.50;;;3.60;99.90;;;;;;5038224;28;20048;-59
2022/12/08 00:46:41;;;;;;;3.38;0.70;;;3.70;99.90;;;;;;5056298;28;20056;-58
2022/12/08 00:49:07;;;;;;;4.53;0.60;;;3.70;99.90;;;;;;5078149;28;20036;-59
2022/12/08 00:51:36;;;;;;;2.63;0.60;;;3.70;99.90;;;;;;5078906;28;20039;-59
2022/12/08 00:54:02;;;;;;;3.38;0.52;;;3.70;99.90;;;;;;5078326;28;20040;-60
2022/12/08 00:56:28;;;;;;;2.80;1.52;;;3.70;99.90;;;;;;5081169;28;20361;-60
2022/12/08 00:58:54;;;;;;;4.50;0.75;;;3.80;99.90;;;;;;5069239;28;20038;-60
2022/12/08 01:01:19;;;;;;;4.43;0.60;;;3.70;99.90;;;;;;5069677;28;20039;-59
2022/12/08 01:03:45;;;;;;;2.72;0.70;;;3.70;99.90;;;;;;5079333;28;20036;-59
2022/12/08 01:06:11;;;;;;;4.72;0.95;;;3.70;99.90;;;;;;5078132;28;20692;-60
2022/12/08 01:08:38;;;;;;;3.53;0.90;;;3.70;99.90;;;;;;5077136;28;20572;-60
2022/12/08 01:11:10;;;;;;;5.03;0.93;;;3.80;99.90;;;;;;5080486;28;20070;-59
2022/12/08 01:13:36;;;;;;;6.40;0.75;;;3.70;99.90;;;;;;5074692;28;20032;-60
2022/12/08 01:16:02;;;;;;;4.07;0.50;;;3.70;99.90;;;;;;5079154;28;20146;-60
2022/12/08 01:18:28;;;;;;;6.88;0.60;;;3.70;99.90;;;;;;5078366;28;20539;-60
2022/12/08 01:20:54;;;;;;;4.68;0.68;;;3.70;99.90;;;;;;5079905;28;20436;-60
2022/12/08 01:23:20;;;;;;;4.85;1.60;;;3.70;99.90;;;;;;5074782;28;20035;-60
2022/12/08 01:25:46;;;;;;;4.63;0.60;;;3.70;99.90;;;;;;5079199;28;20366;-59
2022/12/08 01:28:12;;;;;;;3.53;1.17;;;3.60;99.90;;;;;;5077781;28;20549;-60
2022/12/08 01:30:38;;;;;;;4.95;0.50;;;3.60;99.90;;;;;;5077382;28;20044;-59
2022/12/08 01:33:04;;;;;;;3.30;0.70;;;3.60;99.90;;;;;;5076516;28;20055;-60
2022/12/08 01:35:30;;;;;;;2.70;1.00;;;3.60;99.90;;;;;;5078127;28;20621;-60
2022/12/08 01:37:56;;;;;;;3.58;0.55;;;3.60;99.90;;;;;;5079179;28;20488;-59
2022/12/08 01:40:22;;;;;;;1.20;0.50;;;3.60;99.90;;;;;;5075218;28;20040;-60
2022/12/08 01:42:49;;;;;;;4.82;1.05;;;3.60;99.90;;;;;;5074860;28;20391;-60
2022/12/08 01:45:31;;;;;;;2.45;0.50;;;3.60;99.90;;;;;;5076989;28;20484;-60
2022/12/08 01:48:04;;;;;;;2.63;0.40;;;3.50;99.90;;;;;;5072695;28;20391;-59
2022/12/08 01:50:31;;;;;;;1.17;0.52;;;3.60;99.90;;;;;;5047489;28;20044;-60
2022/12/08 01:53:00;;;;;;;2.42;0.60;;;3.60;99.90;;;;;;5080623;28;20047;-59
2022/12/08 01:55:38;;;;;;;3.10;0.50;;;3.60;99.90;;;;;;5077967;28;20059;-59
2022/12/08 01:58:18;;;;;;;2.10;0.55;;;3.60;99.90;;;;;;5085319;28;20075;-59
2022/12/08 02:00:49;;;;;;;1.65;0.93;;;3.60;99.90;;;;;;5076436;28;20574;-60
2022/12/08 02:03:35;;;;;;;4.28;0.80;;;3.60;99.90;;;;;;5079987;28;20029;-59
2022/12/08 02:06:02;;;;;;;1.63;0.60;;;3.50;99.90;;;;;;5080662;28;20417;-60
2022/12/08 02:08:29;;;;;;;2.45;0.45;;;3.50;99.90;;;;;;5079480;28;20103;-59
2022/12/08 02:10:55;;;;;;;2.53;0.50;;;3.50;99.90;;;;;;5078285;28;20043;-59
2022/12/08 02:13:23;;;;;;;2.85;1.13;;;3.50;99.90;;;;;;5096244;22;20047;-56
2022/12/08 02:16:25;;;;;;;4.82;0.70;;;3.50;99.90;;;;;;5085963;28;20085;-58
2022/12/08 02:19:12;;;;;;;4.25;1.23;;;3.50;99.90;;;;;;5077984;28;20409;-57
2022/12/08 02:21:57;;;;;;;2.20;0.60;;;3.50;99.90;;;;;;5072982;28;20043;-57
2022/12/08 02:24:54;;;;;;;6.95;0.90;;;3.50;99.90;;;;;;5081202;28;20032;-58
2022/12/08 02:27:32;;;;;;;7.50;0.60;;;3.40;99.90;;;;;;5077382;28;20055;-56
2022/12/08 02:30:07;;;;;;;4.32;0.77;;;3.40;99.90;;;;;;5084545;28;20047;-58
2022/12/08 02:32:35;;;;;;;4.78;0.55;;;3.40;99.90;;;;;;5078726;28;20044;-59
2022/12/08 02:35:39;;;;;;;6.40;0.77;;;3.50;99.90;;;;;;5078397;28;20115;-58
2022/12/08 02:38:23;;;;;;;2.78;0.60;;;3.50;99.90;;;;;;5053079;28;20044;-57
2022/12/08 02:41:02;;;;;;;3.33;0.32;;;3.50;99.90;;;;;;5065178;28;20051;-57
2022/12/08 02:43:39;;;;;;;3.20;0.60;;;3.50;99.90;;;;;;5083597;28;20044;-59
2022/12/08 02:46:09;;;;;;;6.13;1.00;;;3.60;99.90;;;;;;5075441;28;20045;-58
2022/12/08 02:48:36;;;;;;;3.45;0.50;;;3.60;99.90;;;;;;5066376;28;20119;-59
2022/12/08 02:51:02;;;;;;;2.05;0.57;;;3.40;99.90;;;;;;5078742;28;20132;-58
2022/12/08 02:53:30;;;;;;;1.33;0.25;;;3.10;99.90;;;;;;5079728;28;20437;-57
2022/12/08 02:56:17;;;;;;;2.80;0.30;;;3.00;99.90;;;;;;5074166;28;20036;-58
2022/12/08 02:59:06;;;;;;;1.52;0.20;;;3.00;99.90;;;;;;5084633;28;20040;-59
2022/12/08 03:01:47;;;;;;;2.33;0.30;;;3.00;99.90;;;;;;5060301;28;20044;-58
2022/12/08 03:04:34;;;;;;;1.38;0.20;;;3.00;99.90;;;;;;5080301;28;20076;-58
2022/12/08 03:07:11;;;;;;;1.35;0.20;;;3.00;99.90;;;;;;5075903;28;20090;-58
2022/12/08 03:09:50;;;;;;;0.50;0.10;;;2.90;99.90;;;;;;5060553;28;20047;-58
2022/12/08 03:12:29;;;;;;;2.25;0.30;;;2.90;99.90;;;;;;5065010;28;20441;-55
2022/12/08 03:14:59;;;;;;;0.80;0.30;;;3.00;99.90;;;;;;5083441;28;20518;-56
2022/12/08 03:17:28;;;;;;;1.27;0.40;;;2.90;99.90;;;;;;5085697;28;20039;-58
2022/12/08 03:19:55;;;;;;;1.15;0.32;;;2.90;99.90;;;;;;5078324;28;20039;-58
2022/12/08 03:22:24;;;;;;;0.85;0.20;;;2.80;99.90;;;;;;5079734;28;20083;-57
2022/12/08 03:24:54;;;;;;;3.65;0.45;;;2.90;99.90;;;;;;5058055;28;20032;-58
2022/12/08 03:27:26;;;;;;;1.73;0.20;;;2.80;99.90;;;;;;5073596;28;20526;-58
2022/12/08 03:29:54;;;;;;;0.80;0.25;;;2.70;99.90;;;;;;5075523;28;20047;-58
2022/12/08 03:32:46;;;;;;;1.27;0.20;;;2.80;99.90;;;;;;5079393;28;20101;-58
2022/12/08 03:35:20;;;;;;;0.40;0.10;;;2.70;99.90;;;;;;5081052;28;20067;-58
2022/12/08 03:37:46;;;;;;;1.92;0.30;;;2.70;99.90;;;;;;5082397;28;20072;-58
2022/12/08 03:40:18;;;;;;;0.98;0.30;;;2.70;99.90;;;;;;5077847;28;20510;-57
2022/12/08 03:42:46;;;;;;;1.88;0.57;;;2.60;99.90;;;;;;5075126;28;20974;-58
2022/12/08 03:45:12;;;;;;;1.38;0.30;;;2.70;99.90;;;;;;5084317;28;20130;-56
2022/12/08 03:47:37;;;;;;;2.20;0.38;;;2.60;99.90;;;;;;5066378;28;20044;-57
2022/12/08 03:50:04;;;;;;;2.83;0.30;;;2.70;99.90;;;;;;5075764;28;20033;-59
2022/12/08 03:52:29;;;;;;;0.45;0.10;;;2.70;99.90;;;;;;5068270;28;20423;-57
2022/12/08 03:54:55;;;;;;;2.58;0.50;;;2.70;99.90;;;;;;5053577;28;20044;-58
2022/12/08 03:57:21;;;;;;;3.83;0.60;;;2.70;99.90;;;;;;5076556;28;20486;-58
2022/12/08 03:59:49;;;;;;;1.60;0.40;;;2.70;99.90;;;;;;5077120;28;20048;-57
2022/12/08 04:02:15;;;;;;;0.52;0.20;;;2.70;99.90;;;;;;5075958;28;20032;-57
2022/12/08 04:04:41;;;;;;;3.78;0.40;;;2.80;99.90;;;;;;5056673;28;20094;-57
2022/12/08 04:07:07;;;;;;;2.08;0.32;;;2.80;99.90;;;;;;5082543;28;20532;-56
2022/12/08 04:09:32;;;;;;;0.32;0.22;;;2.80;99.90;;;;;;5075310;28;20120;-57
2022/12/08 04:11:58;;;;;;;3.00;0.38;;;2.80;99.90;;;;;;5060183;28;20047;-58
2022/12/08 04:14:26;;;;;;;1.85;0.55;;;2.80;99.90;;;;;;5075904;28;20047;-58
2022/12/08 04:16:52;;;;;;;2.55;0.20;;;2.80;99.90;;;;;;5077581;28;20402;-57
2022/12/08 04:19:18;;;;;;;0.98;0.15;;;2.80;99.90;;;;;;5060703;28;20040;-57
2022/12/08 04:21:44;;;;;;;1.85;0.50;;;2.80;99.90;;;;;;5080926;28;20096;-57
2022/12/08 04:24:10;;;;;;;4.38;0.50;;;2.80;99.90;;;;;;5078308;28;20044;-58
2022/12/08 04:26:35;;;;;;;2.72;0.40;;;2.80;99.90;;;;;;5061693;28;20047;-58
2022/12/08 04:29:01;;;;;;;3.05;0.50;;;2.70;99.90;;;;;;5080276;28;20482;-56
2022/12/08 04:31:27;;;;;;;2.03;0.50;;;2.70;99.90;;;;;;5080139;28;20031;-57
2022/12/08 04:33:52;;;;;;;1.95;0.52;;;2.70;99.90;;;;;;5082925;28;20039;-57
2022/12/08 04:36:18;;;;;;;1.48;0.45;;;2.60;99.90;;;;;;5078199;28;20127;-57
2022/12/08 04:38:44;;;;;;;1.85;0.40;;;2.70;99.90;;;;;;5078715;28;20116;-58
2022/12/08 04:41:09;;;;;;;1.58;0.40;;;2.60;99.90;;;;;;5078518;28;20240;-58
2022/12/08 04:43:35;;;;;;;2.00;0.50;;;2.60;99.90;;;;;;5059588;28;20048;-57
2022/12/08 04:46:04;;;;;;;2.65;0.40;;;2.60;99.90;;;;;;5078383;28;20040;-58
2022/12/08 04:48:32;;;;;;;1.35;0.30;;;2.60;99.90;;;;;;5074813;28;20036;-57
2022/12/08 04:50:58;;;;;;;1.67;0.30;;;2.70;99.90;;;;;;5078635;28;20416;-58
2022/12/08 04:53:25;;;;;;;0.22;0.20;;;2.70;99.90;;;;;;5064082;28;20150;-56
2022/12/08 04:55:51;;;;;;;1.85;0.20;;;2.70;99.90;;;;;;5067423;28;20182;-57
2022/12/08 04:58:18;;;;;;;1.55;0.30;;;2.70;99.90;;;;;;5066510;28;20036;-57
2022/12/08 05:00:44;;;;;;;1.25;0.30;;;2.70;99.90;;;;;;5063632;28;20032;-58
2022/12/08 05:03:11;;;;;;;2.03;0.40;;;2.70;99.90;;;;;;5074582;28;20131;-57
2022/12/08 05:05:36;;;;;;;0.88;0.38;;;2.70;99.90;;;;;;5074868;28;20082;-58
2022/12/08 05:08:03;;;;;;;2.63;0.93;;;2.70;99.90;;;;;;5072285;28;20482;-57
2022/12/08 05:10:29;;;;;;;1.70;0.50;;;2.70;99.90;;;;;;5076930;28;20933;-57
2022/12/08 05:12:56;;;;;;;5.28;2.28;;;2.70;99.90;;;;;;5059383;28;20517;-57
2022/12/08 05:15:22;;;;;;;1.08;0.40;;;2.60;99.90;;;;;;5078479;28;20056;-57
2022/12/08 05:17:47;;;;;;;1.70;0.40;;;2.70;99.90;;;;;;5066012;28;20502;-57
2022/12/08 05:20:13;;;;;;;2.85;0.50;;;2.70;99.90;;;;;;5070015;28;20109;-57
2022/12/08 05:22:39;;;;;;;2.47;0.47;;;2.70;99.90;;;;;;5075176;28;20040;-57
2022/12/08 05:25:05;;;;;;;2.42;0.47;;;2.70;99.90;;;;;;5080921;28;20046;-57
2022/12/08 05:27:31;;;;;;;1.48;0.40;;;2.70;99.90;;;;;;5077562;28;20039;-57
2022/12/08 05:29:56;;;;;;;2.90;0.60;;;2.70;99.90;;;;;;5075848;28;20043;-56
2022/12/08 05:32:22;;;;;;;4.53;0.70;;;2.70;99.90;;;;;;5078778;28;20331;-58
2022/12/08 05:34:47;;;;;;;2.63;1.00;;;2.70;99.90;;;;;;5074003;28;20040;-58
2022/12/08 05:37:13;;;;;;;2.33;0.40;;;2.70;99.90;;;;;;5078727;28;20574;-58
2022/12/08 05:39:39;;;;;;;1.48;0.60;;;2.70;99.90;;;;;;5062883;28;20044;-57
2022/12/08 05:42:05;;;;;;;3.60;0.50;;;2.70;99.90;;;;;;5049631;28;20105;-58
2022/12/08 05:44:36;;;;;;;3.47;0.60;;;2.70;99.90;;;;;;5084234;28;20576;-57
2022/12/08 05:47:01;;;;;;;2.42;0.50;;;2.70;99.90;;;;;;5064337;28;20044;-57
2022/12/08 05:49:27;;;;;;;1.35;0.77;;;2.60;99.90;;;;;;5079860;28;20029;-57
2022/12/08 05:51:53;;;;;;;2.03;0.63;;;2.60;99.90;;;;;;5079437;28;20490;-58
2022/12/08 05:54:19;;;;;;;2.70;0.57;;;2.60;99.90;;;;;;5057633;28;20128;-58
2022/12/08 05:56:44;;;;;;;2.35;0.50;;;2.60;99.90;;;;;;5063326;28;20263;-57
2022/12/08 05:59:10;;;;;;;4.07;0.93;;;2.60;99.90;;;;;;5070946;28;20039;-57
2022/12/08 06:01:36;;;;;;;2.85;0.85;;;2.60;99.90;;;;;;5056703;28;20114;-58
2022/12/08 06:04:03;;;;;;;4.63;0.70;;;2.60;99.90;;;;;;5066316;28;20157;-58
2022/12/08 06:06:30;;;;;;;3.30;0.55;;;2.70;99.90;;;;;;5080928;28;20039;-57
2022/12/08 06:08:56;;;;;;;5.20;0.60;;;2.70;99.90;;;;;;5078590;28;20044;-57
2022/12/08 06:11:27;;;;;;;3.63;0.70;;;2.60;99.90;;;;;;5082417;28;20050;-57
2022/12/08 06:13:55;;;;;;;2.42;0.77;;;2.70;99.90;;;;;;5077765;28;20049;-56
2022/12/08 06:16:21;;;;;;;5.65;1.05;;;2.70;99.90;;;;;;5071899;28;20047;-57
2022/12/08 06:18:50;;;;;;;2.47;0.85;;;2.70;99.90;;;;;;5076904;28;20273;-58
2022/12/08 06:21:17;;;;;;;5.28;1.08;;;2.60;99.90;;;;;;5080884;28;20474;-58
2022/12/08 06:23:43;;;;;;;6.50;2.03;;;2.60;99.90;;;;;;5078506;28;20134;-57
2022/12/08 06:26:12;;;;;;;3.10;1.20;;;2.60;99.90;;;;;;5081959;28;20040;-58
2022/12/08 06:28:39;;;;;;;4.35;1.83;;;2.60;99.90;;;;;;5062479;28;20029;-56
2022/12/08 06:31:17;;;;;;;8.65;1.90;;;2.60;99.90;;;;;;5063342;28;20542;-58
2022/12/08 06:33:43;;;;;;;9.73;2.70;;;2.60;99.90;;;;;;5062877;28;20054;-56
2022/12/08 06:36:11;;;;;;;16.17;4.45;;;2.60;99.90;;;;;;5077994;28;20048;-56
2022/12/08 06:38:37;;;;;;;5.18;2.90;;;2.60;99.90;;;;;;5078323;28;20040;-57
2022/12/08 06:41:04;;;;;;;8.80;2.85;;;2.50;99.90;;;;;;5080294;28;20063;-57
2022/12/08 06:43:31;;;;;;;9.63;2.92;;;2.50;99.90;;;;;;5078167;28;20101;-57
2022/12/08 06:45:59;;;;;;;7.57;2.10;;;2.40;99.90;;;;;;5067751;28;20094;-57
2022/12/08 06:48:25;;;;;;;3.97;1.50;;;2.40;99.90;;;;;;5066363;28;20101;-58
2022/12/08 06:50:51;;;;;;;5.25;1.30;;;2.40;99.90;;;;;;5074960;28;20036;-55
2022/12/08 06:53:18;;;;;;;4.45;1.30;;;2.30;99.90;;;;;;5081452;28;20079;-57
2022/12/08 06:55:51;;;;;;;4.15;1.25;;;2.50;99.90;;;;;;5078864;28;20501;-57
2022/12/08 06:58:18;;;;;;;5.20;1.10;;;2.30;99.90;;;;;;5077529;28;20499;-57
2022/12/08 07:00:44;;;;;;;6.40;1.67;;;2.30;99.90;;;;;;5080147;28;20494;-58
2022/12/08 07:03:11;;;;;;;6.03;1.20;;;2.30;99.90;;;;;;5075904;28;20106;-58
2022/12/08 07:05:41;;;;;;;9.32;1.65;;;2.30;99.90;;;;;;5080531;28;20028;-58
2022/12/08 07:08:07;;;;;;;7.95;1.58;;;2.30;99.90;;;;;;5082737;28;20036;-57
2022/12/08 07:10:34;;;;;;;4.63;1.45;;;2.30;99.90;;;;;;5084994;28;20870;-56
2022/12/08 07:12:59;;;;;;;5.38;1.77;;;2.20;99.90;;;;;;5078258;28;20566;-58
2022/12/08 07:15:25;;;;;;;8.32;1.73;;;2.20;99.90;;;;;;5068385;28;20131;-56
2022/12/08 07:17:51;;;;;;;7.70;1.73;;;2.20;99.90;;;;;;5082953;28;20036;-57
2022/12/08 07:20:17;;;;;;;7.00;1.45;;;2.10;99.90;;;;;;5063215;28;20394;-56
2022/12/08 07:22:50;;;;;;;6.47;1.35;;;2.10;99.90;;;;;;5083474;28;20043;-57
2022/12/08 07:25:16;;;;;;;7.40;1.60;;;2.00;99.90;;;;;;5068649;28;20032;-56
2022/12/08 07:27:42;;;;;;;4.13;1.50;;;2.00;99.90;;;;;;5064490;28;20046;-56
2022/12/08 07:30:08;;;;;;;8.32;1.60;;;2.00;99.90;;;;;;5061719;28;20139;-57
2022/12/08 07:32:36;;;;;;;3.95;1.80;;;2.00;99.90;;;;;;5064394;28;20039;-56
2022/12/08 07:35:06;;;;;;;8.40;1.30;;;2.00;99.90;;;;;;5060671;28;20036;-58
2022/12/08 07:37:33;;;;;;;4.50;1.30;;;2.00;99.90;;;;;;5059569;28;20372;-58
2022/12/08 07:39:58;;;;;;;6.97;1.45;;;1.90;99.90;;;;;;5067133;28;20043;-57
2022/12/08 07:42:24;;;;;;;5.22;1.50;;;1.90;99.90;;;;;;5064086;28;20250;-57
2022/12/08 07:44:52;;;;;;;3.85;1.30;;;2.00;99.90;;;;;;5078785;28;20115;-57
2022/12/08 07:47:18;;;;;;;9.52;2.17;;;1.90;99.90;;;;;;5067315;28;20071;-56
2022/12/08 07:49:44;;;;;;;9.60;1.60;;;1.80;99.90;;;;;;5074111;28;20060;-58
2022/12/08 07:52:10;;;;;;;4.93;1.73;;;1.80;99.90;;;;;;5064629;28;20101;-56
2022/12/08 07:54:35;;;;;;;8.93;2.17;;;1.80;99.90;;;;;;5082861;28;20066;-58
2022/12/08 07:57:02;;;;;;;6.88;1.90;;;1.80;99.90;;;;;;5078558;28;20059;-58
2022/12/08 07:59:28;;;;;;;3.45;1.60;;;1.80;99.90;;;;;;5045794;28;20173;-57
2022/12/08 08:01:54;;;;;;;6.65;1.55;;;1.80;99.90;;;;;;5084517;28;20089;-58
2022/12/08 08:04:19;;;;;;;4.75;1.45;;;1.80;99.90;;;;;;5040987;28;20445;-58
2022/12/08 08:06:45;;;;;;;3.97;1.85;;;1.70;99.90;;;;;;5056800;28;20499;-58
2022/12/08 08:09:11;;;;;;;7.15;1.27;;;1.70;99.90;;;;;;5074824;28;20071;-58
2022/12/08 08:11:37;;;;;;;8.82;2.15;;;1.80;99.90;;;;;;5063364;28;20137;-57
2022/12/08 08:14:05;;;;;;;7.28;1.70;;;1.80;99.90;;;;;;5070161;22;20044;-57
2022/12/08 08:16:30;;;;;;;6.75;1.65;;;1.80;99.90;;;;;;5036293;28;20048;-57
2022/12/08 08:18:56;;;;;;;8.27;2.78;;;1.80;99.90;;;;;;5044393;28;20055;-58
2022/12/08 08:21:25;;;;;;;8.63;1.60;;;1.80;99.90;;;;;;5043116;28;20041;-57
2022/12/08 08:23:51;;;;;;;6.88;1.65;;;1.80;99.90;;;;;;5043237;28;20060;-56
2022/12/08 08:26:16;;;;;;;4.53;1.30;;;1.80;99.90;;;;;;5024670;28;20116;-56
2022/12/08 08:28:44;;;;;;;3.88;1.45;;;1.80;99.90;;;;;;5044477;28;20187;-55
2022/12/08 08:31:11;;;;;;;4.93;2.47;;;1.80;99.90;;;;;;5060280;28;20049;-57
2022/12/08 08:33:37;;;;;;;6.22;1.20;;;1.80;99.90;;;;;;5042615;28;20048;-57
2022/12/08 08:36:07;;;;;;;4.18;1.35;;;1.80;99.90;;;;;;5046154;28;20049;-58
2022/12/08 08:38:38;;;;;;;3.97;1.27;;;1.70;99.90;;;;;;5043008;28;20048;-57
2022/12/08 08:41:10;;;;;;;4.50;1.17;;;1.80;99.90;;;;;;5043516;28;20101;-57
2022/12/08 08:43:39;;;;;;;4.13;1.17;;;1.80;99.90;;;;;;5027104;28;20048;-58
2022/12/08 08:46:05;;;;;;;6.10;1.55;;;1.90;99.90;;;;;;5039229;28;20094;-58
2022/12/08 08:48:35;;;;;;;5.63;1.85;;;1.90;99.90;;;;;;5036826;28;20091;-58
2022/12/08 08:51:13;;;;;;;6.55;1.63;;;2.00;99.90;;;;;;5040823;28;20045;-57
2022/12/08 08:53:41;;;;;;;12.52;1.70;;;2.00;99.90;;;;;;5062620;28;20128;-58
2022/12/08 08:56:09;;;;;;;5.95;1.95;;;2.10;99.90;;;;;;5045565;28;20499;-58
2022/12/08 08:58:35;;;;;;;6.78;2.22;;;2.20;99.90;;;;;;5038578;28;20127;-58
2022/12/08 09:01:01;;;;;;;6.82;1.80;;;2.20;99.90;;;;;;5047267;28;20123;-58
2022/12/08 09:03:27;;;;;;;3.60;1.50;;;2.30;99.90;;;;;;5030308;28;20406;-58
2022/12/08 09:05:54;;;;;;;12.30;1.80;;;2.30;99.90;;;;;;5040819;28;20680;-58
2022/12/08 09:08:20;;;;;;;4.28;1.60;;;2.30;99.90;;;;;;5039608;28;20037;-58
2022/12/08 09:10:46;;;;;;;5.03;1.63;;;2.40;99.90;;;;;;5034114;28;20053;-58
2022/12/08 09:13:11;;;;;;;5.35;1.70;;;2.40;99.90;;;;;;5024747;28;20060;-59
2022/12/08 09:15:37;;;;;;;8.88;1.48;;;2.40;99.90;;;;;;5034733;28;20281;-59
2022/12/08 09:18:05;;;;;;;10.05;1.85;;;2.40;99.90;;;;;;5065884;28;20084;-57
2022/12/08 09:20:32;;;;;;;7.93;1.70;;;2.40;99.90;;;;;;5020643;28;20095;-59
2022/12/08 09:22:58;;;;;;;6.22;2.28;;;2.40;99.90;;;;;;5057858;28;20672;-58
2022/12/08 09:25:23;;;;;;;6.13;1.50;;;2.40;99.90;;;;;;5036078;28;20033;-59
2022/12/08 09:27:49;;;;;;;5.63;1.73;;;2.40;99.90;;;;;;5019414;28;20040;-58
2022/12/08 09:30:15;;;;;;;8.70;1.73;;;2.40;99.90;;;;;;5026302;28;20126;-58
2022/12/08 09:32:41;;;;;;;4.90;1.58;;;2.40;99.90;;;;;;5040772;28;20037;-58
2022/12/08 09:35:07;;;;;;;5.68;1.48;;;2.40;99.90;;;;;;5061444;28;20048;-58
2022/12/08 09:37:33;;;;;;;8.65;1.45;;;2.40;99.90;;;;;;5021406;28;20044;-58
2022/12/08 09:39:58;;;;;;;3.78;1.40;;;2.40;99.90;;;;;;5026747;28;20041;-59
2022/12/08 09:42:40;;;;;;;7.88;1.30;;;2.40;99.90;;;;;;5020439;28;20026;-58
2022/12/08 09:45:15;;;;;;;6.30;1.13;;;2.50;99.90;;;;;;5024790;28;20048;-59
2022/12/08 09:48:06;;;;;;;8.23;1.20;;;2.60;99.90;;;;;;5046047;28;20041;-59
2022/12/08 09:50:46;;;;;;;3.13;0.93;;;2.70;99.90;;;;;;5002004;28;20520;-59
2022/12/08 09:53:17;;;;;;;4.13;1.00;;;2.90;99.90;;;;;;5020248;28;20445;-59
2022/12/08 09:55:45;;;;;;;8.07;1.60;;;3.00;99.90;;;;;;5023944;28;20522;-59
2022/12/08 09:58:44;;;;;;;7.13;1.38;;;3.10;99.90;;;;;;5026325;28;20043;-59
2022/12/08 10:01:10;;;;;;;6.72;1.58;;;3.20;99.90;;;;;;5036269;28;20540;-59
2022/12/08 10:03:36;;;;;;;4.90;1.63;;;3.30;99.90;;;;;;5021392;28;20068;-59
2022/12/08 10:06:05;;;;;;;5.90;1.55;;;3.40;99.90;;;;;;5024251;28;20494;-59
2022/12/08 10:09:00;;;;;;;12.02;1.65;;;3.50;99.90;;;;;;5074535;28;20049;-58
2022/12/08 10:11:44;;;;;;;10.95;1.83;;;3.60;99.90;;;;;;5017070;28;20419;-59
2022/12/08 10:14:34;;;;;;;10.65;1.60;;;3.70;99.90;;;;;;5038806;28;20044;-59
2022/12/08 10:17:14;;;;;;;16.70;3.38;;;3.80;99.90;;;;;;5026062;28;20044;-59
2022/12/08 10:19:45;;;;;;;14.57;2.53;;;3.80;99.90;;;;;;5029725;28;20072;-59
2022/12/08 10:22:22;;;;;;;10.30;2.80;;;4.00;99.90;;;;;;5024822;28;20053;-59
2022/12/08 10:25:04;;;;;;;7.93;2.08;;;4.10;99.90;;;;;;5058362;28;20048;-59
2022/12/08 10:27:33;;;;;;;11.23;1.77;;;4.20;99.90;;;;;;5038996;28;20287;-59
2022/12/08 10:29:59;;;;;;;8.88;2.47;;;4.30;99.90;;;;;;5024659;28;20542;-59
2022/12/08 10:32:33;;;;;;;4.97;2.03;;;4.40;99.90;;;;;;5006637;28;20123;-59
2022/12/08 10:35:06;;;;;;;8.95;2.13;;;4.50;99.90;;;;;;5025002;28;20094;-59
2022/12/08 10:37:32;;;;;;;4.88;1.42;;;4.50;99.90;;;;;;5057987;28;20043;-58
2022/12/08 10:40:08;;;;;;;4.85;1.63;;;4.50;99.90;;;;;;5010576;28;20056;-59
2022/12/08 10:42:41;;;;;;;9.63;2.03;;;4.40;99.90;;;;;;5024384;28;20570;-59
2022/12/08 10:45:36;;;;;;;7.20;1.63;;;4.40;99.90;;;;;;5045342;28;20556;-59
2022/12/08 10:48:08;;;;;;;7.32;1.60;;;4.30;99.90;;;;;;5055090;28;20079;-58
2022/12/08 10:50:56;;;;;;;11.27;1.80;;;4.20;99.90;;;;;;5042166;28;20103;-59
2022/12/08 10:53:25;;;;;;;3.78;1.75;;;4.10;99.90;;;;;;5041895;28;20053;-59
2022/12/08 10:55:50;;;;;;;8.45;1.73;;;4.10;99.90;;;;;;5026334;28;20044;-59
2022/12/08 10:58:30;;;;;;;5.85;1.88;;;4.00;99.90;;;;;;5027133;28;20403;-59
2022/12/08 11:01:16;;;;;;;5.03;1.80;;;4.00;99.90;;;;;;5021913;28;20037;-58
2022/12/08 11:03:47;;;;;;;11.00;2.35;;;4.00;99.90;;;;;;5038745;28;20036;-59
2022/12/08 11:06:40;;;;;;;6.60;1.88;;;4.00;99.90;;;;;;5026442;28;20510;-59
2022/12/08 11:09:15;;;;;;;9.48;2.28;;;4.00;99.90;;;;;;5028198;28;20288;-59
2022/12/08 11:11:43;;;;;;;9.05;1.92;;;4.20;99.90;;;;;;5026546;28;20102;-59
2022/12/08 11:14:22;;;;;;;7.38;2.30;;;4.30;99.90;;;;;;5026260;28;20080;-58
2022/12/08 11:16:53;;;;;;;8.95;2.15;;;4.40;99.90;;;;;;5041822;28;20045;-58
2022/12/08 11:19:20;;;;;;;17.60;3.63;;;4.60;99.90;;;;;;5018346;28;20049;-58
2022/12/08 11:21:46;;;;;;;6.50;1.67;;;4.60;99.90;;;;;;4987324;28;20411;-59
2022/12/08 11:24:27;;;;;;;6.18;1.60;;;4.70;99.90;;;;;;5024272;28;20041;-58
2022/12/08 11:27:01;;;;;;;9.13;1.98;;;4.70;99.90;;;;;;5020722;28;20041;-58
2022/12/08 11:29:32;;;;;;;8.20;2.00;;;4.70;99.90;;;;;;5020119;28;20033;-58
2022/12/08 11:32:12;;;;;;;6.18;1.65;;;4.80;99.90;;;;;;5021814;28;20053;-59
2022/12/08 11:35:00;;;;;;;4.68;1.45;;;4.90;99.90;;;;;;5026664;28;20317;-59
2022/12/08 11:37:36;;;;;;;8.43;1.27;;;4.90;99.90;;;;;;5022803;28;20759;-59
2022/12/08 11:40:12;;;;;;;8.13;1.30;;;5.10;99.90;;;;;;5021579;28;20447;-59
2022/12/08 11:43:04;;;;;;;6.05;1.40;;;5.20;99.90;;;;;;5025232;28;20064;-58
2022/12/08 11:45:32;;;;;;;7.85;1.50;;;5.20;99.90;;;;;;5028624;28;20403;-58
2022/12/08 11:48:01;;;;;;;16.65;5.70;;;5.20;99.90;;;;;;5010059;28;20373;-58
2022/12/08 11:50:41;;;;;;;8.85;2.55;;;5.20;99.90;;;;;;5028316;28;20114;-59
2022/12/08 11:53:15;;;;;;;50.63;17.90;;;5.20;99.90;;;;;;5023606;28;20044;-58
2022/12/08 11:55:49;;;;;;;18.75;5.13;;;5.10;99.90;;;;;;5008162;28;20036;-58
2022/12/08 11:58:24;;;;;;;28.67;9.63;;;5.10;99.90;;;;;;5038187;28;20044;-57
2022/12/08 12:00:50;;;;;;;18.08;5.80;;;5.00;99.90;;;;;;5023417;28;20127;-59
2022/12/08 12:03:31;;;;;;;10.50;2.70;;;5.20;99.90;;;;;;5027398;28;20499;-58
2022/12/08 12:06:23;;;;;;;11.98;4.53;;;5.30;99.90;;;;;;5023743;28;20345;-58
2022/12/08 12:09:13;;;;;;;12.63;2.88;;;5.40;99.90;;;;;;5030567;28;20144;-59
2022/12/08 12:12:12;;;;;;;5.32;2.13;;;5.60;99.90;;;;;;5023945;28;20049;-58
2022/12/08 12:14:56;;;;;;;4.97;0.90;;;5.70;99.90;;;;;;5031494;28;20041;-58
2022/12/08 12:17:34;;;;;;;5.68;1.52;;;5.70;99.90;;;;;;5038732;28;20399;-58
2022/12/08 12:20:03;;;;;;;5.45;2.03;;;5.70;99.90;;;;;;5021991;28;20041;-58
2022/12/08 12:22:34;;;;;;;4.45;1.70;;;5.50;99.90;;;;;;5022066;28;20076;-58
2022/12/08 12:25:01;;;;;;;5.55;1.27;;;5.40;99.90;;;;;;5021773;28;20033;-59
2022/12/08 12:27:28;;;;;;;7.75;1.58;;;5.30;99.90;;;;;;5036982;28;20056;-58
2022/12/08 12:30:04;;;;;;;5.10;1.38;;;5.20;99.90;;;;;;5027134;28;20076;-59
2022/12/08 12:32:50;;;;;;;7.35;1.33;;;5.20;99.90;;;;;;5059699;28;20072;-59
2022/12/08 12:35:29;;;;;;;10.23;2.63;;;5.20;99.90;;;;;;5008254;28;20045;-59
2022/12/08 12:38:00;;;;;;;5.90;1.48;;;5.20;99.90;;;;;;5037413;28;20053;-59
2022/12/08 12:40:31;;;;;;;7.65;1.60;;;5.20;99.90;;;;;;5039712;28;20563;-59
2022/12/08 12:42:56;;;;;;;8.05;1.55;;;5.20;99.90;;;;;;5028847;28;20045;-58
2022/12/08 12:45:29;;;;;;;4.05;1.52;;;5.20;99.90;;;;;;5051025;28;20057;-59
2022/12/08 12:47:55;;;;;;;3.78;1.48;;;5.20;99.90;;;;;;5023112;28;20038;-59
2022/12/08 12:50:50;;;;;;;10.52;2.97;;;5.20;99.90;;;;;;5049085;28;20045;-59
2022/12/08 12:53:15;;;;;;;8.93;3.20;;;5.20;99.90;;;;;;5023554;28;20077;-57
2022/12/08 12:55:44;;;;;;;6.88;2.20;;;5.10;99.90;;;;;;5045239;28;20069;-58
2022/12/08 12:58:28;;;;;;;7.07;1.75;;;5.20;99.90;;;;;;5008941;28;20040;-56
2022/12/08 13:01:09;;;;;;;15.80;2.22;;;5.10;99.90;;;;;;5039072;28;20086;-57
2022/12/08 13:03:39;;;;;;;7.00;2.47;;;5.10;99.90;;;;;;5025033;28;20041;-56
2022/12/08 13:06:06;;;;;;;3.42;1.00;;;5.10;99.90;;;;;;5037381;28;20037;-57
2022/12/08 13:08:37;;;;;;;1.38;0.60;;;5.10;99.90;;;;;;5043573;28;20041;-57
2022/12/08 13:11:11;;;;;;;4.53;0.90;;;5.10;99.90;;;;;;5061093;28;20076;-58
2022/12/08 13:13:37;;;;;;;;;;;5.10;99.90;;;;;;5032772;28;20129;-57
2022/12/08 13:16:09;;;;;;;2.45;0.60;;;5.10;99.90;;;;;;5021624;28;19995;-57
2022/12/08 13:18:44;;;;;;;2.80;0.90;;;5.10;99.90;;;;;;5036641;28;20595;-56